King, North Carolina
Current Conditions -  °F | °C
As of 6:54 PM on Monday 22 Dec 2014 (Local Time) from KINT Reporting Station
Haze Haze  
Wind Chill: 29°   Ceiling: 300
Heat Index: 35°   Visibility: 5mi
Dew Point: 33°   Wind: 8mph
Humidity: 92%   Direction: 50°NE
Pressure: 30.08"   Gusts: NA
Location:  36.28°N, 80.36°W
Report Text: KINT 222354Z 05007KT 5SM BR OVC003 02/01 A3008 RMK AO2 SLP189 T00170006 10022 20017 53002
Loading
Personal Weather Stations






























Interactive Weather Map New forecast layout! Learn more

10-Day Weather Forecast

Advertisements
Track Severe Weather on mobile